createdAt,value
2023-03-21T00:01:14.446Z,9.80
2023-03-21T00:03:44.234Z,14.80
2023-03-21T00:06:14.403Z,10.80
2023-03-21T00:08:42.799Z,10.70
2023-03-21T00:11:12.887Z,10.30
2023-03-21T00:13:42.406Z,13.73
2023-03-21T00:16:20.963Z,8.67
2023-03-21T00:18:58.963Z,10.97
2023-03-21T00:22:03.704Z,10.90
2023-03-21T00:24:22.117Z,14.47
2023-03-21T00:26:51.028Z,9.20
2023-03-21T00:29:19.243Z,15.70
2023-03-21T00:31:48.182Z,14.90
2023-03-21T00:34:22.748Z,12.33
2023-03-21T00:37:01.703Z,14.60
2023-03-21T00:39:29.934Z,12.37
2023-03-21T00:41:58.074Z,9.70
2023-03-21T00:44:26.317Z,11.90
2023-03-21T00:47:06.663Z,10.30
2023-03-21T00:49:38.568Z,11.93
2023-03-21T00:52:17.110Z,13.37
2023-03-21T00:54:48.435Z,12.60
2023-03-21T00:57:16.893Z,13.97
2023-03-21T00:59:45.242Z,10.77
2023-03-21T01:02:22.597Z,11.33
2023-03-21T01:04:52.232Z,13.10
2023-03-21T01:07:20.540Z,9.20
2023-03-21T01:09:48.823Z,11.57
2023-03-21T01:12:17.049Z,9.43
2023-03-21T01:14:45.222Z,10.03
2023-03-21T01:17:13.453Z,13.47
2023-03-21T01:19:51.568Z,12.80
2023-03-21T01:22:22.190Z,11.27
2023-03-21T01:24:58.669Z,14.13
2023-03-21T01:27:31.592Z,15.33
2023-03-21T01:29:59.873Z,16.27
2023-03-21T01:32:28.316Z,14.30
2023-03-21T01:34:56.659Z,12.87
2023-03-21T01:37:26.602Z,12.73
2023-03-21T01:39:54.820Z,13.60
2023-03-21T01:42:23.544Z,14.20
2023-03-21T01:44:55.406Z,11.10
2023-03-21T01:47:24.016Z,12.53
2023-03-21T01:50:06.940Z,11.63
2023-03-21T01:52:50.016Z,12.77
2023-03-21T01:55:25.934Z,11.97
2023-03-21T01:58:12.749Z,10.03
2023-03-21T02:01:00.769Z,11.20
2023-03-21T02:03:49.955Z,11.27
2023-03-21T02:06:35.395Z,9.57
2023-03-21T02:09:17.842Z,10.27
2023-03-21T02:11:47.717Z,13.87
2023-03-21T02:14:29.080Z,9.07
2023-03-21T02:17:11.401Z,9.20
2023-03-21T02:20:00.691Z,12.93
2023-03-21T02:23:01.334Z,11.10
2023-03-21T02:25:53.344Z,13.40
2023-03-21T02:28:27.212Z,9.50
2023-03-21T02:31:14.506Z,11.63
2023-03-21T02:34:07.730Z,9.37
2023-03-21T02:36:51.732Z,10.93
2023-03-21T02:39:27.360Z,9.53
2023-03-21T02:42:04.437Z,10.87
2023-03-21T02:44:43.574Z,10.23
2023-03-21T02:47:53.522Z,10.00
2023-03-21T02:50:27.463Z,14.70
2023-03-21T02:52:58.634Z,12.00
2023-03-21T02:55:31.420Z,10.80
2023-03-21T02:58:12.307Z,11.07
2023-03-21T03:00:46.072Z,14.43
2023-03-21T03:03:33.680Z,11.97
2023-03-21T03:06:08.554Z,10.90
2023-03-21T03:09:01.413Z,10.27
2023-03-21T03:11:32.524Z,20.63
2023-03-21T03:14:53.020Z,10.60
2023-03-21T03:17:24.279Z,11.60
2023-03-21T03:20:16.151Z,13.47
2023-03-21T03:22:53.980Z,10.30
2023-03-21T03:25:41.723Z,15.10
2023-03-21T03:28:15.029Z,10.50
2023-03-21T03:30:57.102Z,10.10
2023-03-21T03:33:35.309Z,10.77
2023-03-21T03:36:06.935Z,14.63
2023-03-21T03:38:39.806Z,14.93
2023-03-21T03:41:14.679Z,21.50
2023-03-21T03:43:54.922Z,16.80
2023-03-21T03:46:31.739Z,31.07
2023-03-21T03:49:03.316Z,45.33
2023-03-21T03:51:36.953Z,54.20
2023-03-21T03:54:15.565Z,76.80
2023-03-21T03:56:46.858Z,66.70
2023-03-21T03:59:19.453Z,39.67
2023-03-21T04:02:08.033Z,37.03
2023-03-21T04:04:37.569Z,24.90
2023-03-21T04:07:06.407Z,18.07
2023-03-21T04:09:44.229Z,19.83
2023-03-21T04:12:16.875Z,17.30
2023-03-21T04:15:09.551Z,15.30
2023-03-21T04:17:40.516Z,13.47
2023-03-21T04:20:15.085Z,14.37
2023-03-21T04:22:44.926Z,15.57
2023-03-21T04:25:19.010Z,19.60
2023-03-21T04:27:58.089Z,17.93
2023-03-21T04:30:45.040Z,18.50
2023-03-21T04:33:25.843Z,17.13
2023-03-21T04:35:59.048Z,17.43
2023-03-21T04:38:30.909Z,15.90
2023-03-21T04:41:02.994Z,21.87
2023-03-21T04:43:33.187Z,21.30
2023-03-21T04:46:01.372Z,19.50
2023-03-21T04:48:29.944Z,21.37
2023-03-21T04:51:00.651Z,24.63
2023-03-21T04:53:30.572Z,19.80
2023-03-21T04:55:58.738Z,17.13
2023-03-21T04:58:27.037Z,23.23
2023-03-21T05:00:57.391Z,21.20
2023-03-21T05:03:25.665Z,19.60
2023-03-21T05:05:53.806Z,18.77
2023-03-21T05:08:22.232Z,20.53
2023-03-21T05:10:50.401Z,23.37
2023-03-21T05:13:18.937Z,27.23
2023-03-21T05:15:47.260Z,29.33
2023-03-21T05:18:24.737Z,30.90
2023-03-21T05:21:04.437Z,27.40
2023-03-21T05:23:38.203Z,29.57
2023-03-21T05:26:08.095Z,27.07
2023-03-21T05:28:44.576Z,25.77
2023-03-21T05:31:15.813Z,35.27
2023-03-21T05:33:46.856Z,37.17
2023-03-21T05:36:19.404Z,32.10
2023-03-21T05:38:47.686Z,30.33
2023-03-21T05:41:19.355Z,32.63
2023-03-21T05:43:48.574Z,33.40
2023-03-21T05:46:18.384Z,31.53
2023-03-21T05:48:48.417Z,32.53
2023-03-21T05:51:18.942Z,28.30
2023-03-21T05:53:48.445Z,32.17
2023-03-21T05:56:17.689Z,37.07
2023-03-21T05:58:55.685Z,29.63
2023-03-21T06:01:25.478Z,39.07
2023-03-21T06:04:04.097Z,34.20
2023-03-21T06:06:32.487Z,31.03
2023-03-21T06:09:02.284Z,32.63
2023-03-21T06:11:34.563Z,32.00
2023-03-21T06:14:24.230Z,28.40
2023-03-21T06:17:15.878Z,35.67
2023-03-21T06:19:51.359Z,31.87
2023-03-21T06:22:25.401Z,30.10
2023-03-21T06:24:53.893Z,33.53
2023-03-21T06:27:22.062Z,30.43
2023-03-21T06:29:55.688Z,34.53
2023-03-21T06:32:24.695Z,31.77
2023-03-21T06:34:59.515Z,31.20
2023-03-21T06:37:28.038Z,29.30
2023-03-21T06:39:56.403Z,28.50
2023-03-21T06:42:25.750Z,29.10
2023-03-21T06:44:59.962Z,30.23
2023-03-21T06:47:28.882Z,32.77
2023-03-21T06:49:59.193Z,35.23
2023-03-21T06:52:27.346Z,30.37
2023-03-21T06:54:55.538Z,35.57
2023-03-21T06:57:23.693Z,32.63
2023-03-21T06:59:52.203Z,30.87
2023-03-21T07:02:22.646Z,30.93
2023-03-21T07:05:10.982Z,36.47
2023-03-21T07:07:39.537Z,33.53
2023-03-21T07:10:10.721Z,33.30
2023-03-21T07:12:47.452Z,31.23
2023-03-21T07:15:38.316Z,31.23
2023-03-21T07:18:07.977Z,33.50
2023-03-21T07:20:38.929Z,33.77
2023-03-21T07:23:07.335Z,33.83
2023-03-21T07:25:36.006Z,33.93
2023-03-21T07:28:09.028Z,39.33
2023-03-21T07:30:37.857Z,34.93
2023-03-21T07:33:07.094Z,33.17
2023-03-21T07:35:37.596Z,32.07
2023-03-21T07:38:07.828Z,30.00
2023-03-21T07:40:36.398Z,31.83
2023-03-21T07:43:04.930Z,33.67
2023-03-21T07:45:35.962Z,32.37
2023-03-21T07:48:09.640Z,31.93
2023-03-21T07:50:39.663Z,30.83
2023-03-21T07:53:08.511Z,31.63
2023-03-21T07:55:37.038Z,31.93
2023-03-21T07:58:06.122Z,34.03
2023-03-21T08:00:34.729Z,29.63
2023-03-21T08:03:02.964Z,29.90
2023-03-21T08:05:36.194Z,37.73
2023-03-21T08:08:07.092Z,29.63
2023-03-21T08:10:36.013Z,29.00
2023-03-21T08:13:04.771Z,25.53
2023-03-21T08:15:32.975Z,26.60
2023-03-21T08:18:01.782Z,25.23
2023-03-21T08:20:29.998Z,31.53
2023-03-21T08:22:58.197Z,30.93
2023-03-21T08:25:27.788Z,29.40
2023-03-21T08:27:55.929Z,25.83
2023-03-21T08:30:27.295Z,26.63
2023-03-21T08:33:00.858Z,28.60
2023-03-21T08:35:30.217Z,27.73
2023-03-21T08:37:58.507Z,28.23
2023-03-21T08:40:27.975Z,31.43
2023-03-21T08:42:56.222Z,28.20
2023-03-21T08:45:25.386Z,25.87
2023-03-21T08:47:54.141Z,31.37
2023-03-21T08:50:25.034Z,28.57
2023-03-21T08:52:53.416Z,26.27
2023-03-21T08:55:21.561Z,26.10
2023-03-21T08:57:51.037Z,27.53
2023-03-21T09:00:20.719Z,26.63
2023-03-21T09:02:51.495Z,25.43
2023-03-21T09:05:19.974Z,25.53
2023-03-21T09:07:53.051Z,24.70
2023-03-21T09:10:23.326Z,25.67
2023-03-21T09:12:54.814Z,27.47
2023-03-21T09:15:24.914Z,28.50
2023-03-21T09:17:54.245Z,29.40
2023-03-21T09:20:26.516Z,29.40
2023-03-21T09:22:55.300Z,26.90
2023-03-21T09:25:24.639Z,26.03
2023-03-21T09:27:54.459Z,27.43
2023-03-21T09:30:24.866Z,28.47
2023-03-21T09:32:55.925Z,26.90
2023-03-21T09:35:27.078Z,31.77
2023-03-21T09:37:58.995Z,28.73
2023-03-21T09:40:41.379Z,27.43
2023-03-21T09:43:25.037Z,27.93
2023-03-21T09:46:00.110Z,27.00
2023-03-21T09:48:39.596Z,26.20
2023-03-21T09:51:18.000Z,32.10
2023-03-21T09:53:50.026Z,30.63
2023-03-21T09:56:19.125Z,30.33
2023-03-21T09:58:53.152Z,23.33
2023-03-21T10:01:29.855Z,27.07
2023-03-21T10:04:01.332Z,24.90
2023-03-21T10:06:31.917Z,25.27
2023-03-21T10:09:07.330Z,24.17
2023-03-21T10:11:44.340Z,25.47
2023-03-21T10:14:20.257Z,22.53
2023-03-21T10:16:52.488Z,26.37
2023-03-21T10:19:21.193Z,21.70
2023-03-21T10:22:06.954Z,17.87
2023-03-21T10:24:35.985Z,18.87
2023-03-21T10:27:05.799Z,22.93
2023-03-21T10:29:43.296Z,19.93
2023-03-21T10:32:14.796Z,21.47
2023-03-21T10:34:47.026Z,15.00
2023-03-21T10:37:16.784Z,16.53
2023-03-21T10:39:47.604Z,14.73
2023-03-21T10:42:21.430Z,14.43
2023-03-21T10:44:52.743Z,15.50
2023-03-21T10:47:23.060Z,16.00
2023-03-21T10:50:06.821Z,18.17
2023-03-21T10:52:37.168Z,12.77
2023-03-21T10:55:16.558Z,24.60
2023-03-21T10:57:46.055Z,11.10
2023-03-21T11:00:22.535Z,12.40
2023-03-21T11:02:52.709Z,14.03
2023-03-21T11:05:25.478Z,12.70
2023-03-21T11:08:00.679Z,13.70
2023-03-21T11:10:31.168Z,15.90
2023-03-21T11:13:04.919Z,17.87
2023-03-21T11:15:42.581Z,15.63
2023-03-21T11:18:20.125Z,21.10
2023-03-21T11:20:53.926Z,15.33
2023-03-21T11:23:26.972Z,17.10
2023-03-21T11:25:55.851Z,16.97
2023-03-21T11:28:33.261Z,14.53
2023-03-21T11:31:04.591Z,14.63
2023-03-21T11:33:36.615Z,14.57
2023-03-21T11:36:07.673Z,13.97
2023-03-21T11:38:39.523Z,18.57
2023-03-21T11:41:08.828Z,17.10
2023-03-21T11:43:38.312Z,19.90
2023-03-21T11:46:10.211Z,19.90
2023-03-21T11:48:42.177Z,16.97
2023-03-21T11:51:21.408Z,18.67
2023-03-21T11:53:58.392Z,17.60
2023-03-21T11:56:29.460Z,16.07
2023-03-21T11:59:19.582Z,16.90
2023-03-21T12:02:05.749Z,16.60
2023-03-21T12:04:41.906Z,16.37
2023-03-21T12:07:41.543Z,15.73
2023-03-21T12:10:33.991Z,15.80
2023-03-21T12:13:14.440Z,15.40
2023-03-21T12:15:53.795Z,14.47
2023-03-21T12:18:41.259Z,18.40
2023-03-21T12:21:17.748Z,15.43
2023-03-21T12:24:00.256Z,14.03
2023-03-21T12:26:32.056Z,14.20
2023-03-21T12:29:18.256Z,15.30
2023-03-21T12:31:59.249Z,17.20
2023-03-21T12:34:51.037Z,16.50
2023-03-21T12:37:27.110Z,18.50
2023-03-21T12:40:01.447Z,19.47
2023-03-21T12:42:47.326Z,17.13
2023-03-21T12:45:21.454Z,15.90
2023-03-21T12:47:55.728Z,20.53
2023-03-21T12:50:28.728Z,19.37
2023-03-21T12:53:00.876Z,17.90
2023-03-21T12:55:32.701Z,19.40
2023-03-21T12:58:05.895Z,19.80
2023-03-21T13:00:39.736Z,16.90
2023-03-21T13:03:13.563Z,17.80
2023-03-21T13:05:47.641Z,15.70
2023-03-21T13:08:22.398Z,15.93
2023-03-21T13:10:50.685Z,13.20
2023-03-21T13:13:27.164Z,19.33
2023-03-21T13:16:03.818Z,16.23
2023-03-21T13:18:50.172Z,14.27
2023-03-21T13:21:26.978Z,14.90
2023-03-21T13:24:03.097Z,14.67
2023-03-21T13:26:39.769Z,16.13
2023-03-21T13:29:15.974Z,15.40
2023-03-21T13:31:52.518Z,15.10
2023-03-21T13:34:23.454Z,13.40
2023-03-21T13:36:53.740Z,15.93
2023-03-21T13:39:27.512Z,17.73
2023-03-21T13:41:56.635Z,16.23
2023-03-21T13:44:33.156Z,13.67
2023-03-21T13:47:03.456Z,13.73
2023-03-21T13:49:35.100Z,15.47
2023-03-21T13:52:28.190Z,16.10
2023-03-21T13:54:57.548Z,13.73
2023-03-21T13:57:39.731Z,14.27
2023-03-21T14:00:24.153Z,16.83
2023-03-21T14:02:59.690Z,14.50
2023-03-21T14:05:28.975Z,15.70
2023-03-21T14:08:12.695Z,14.83
2023-03-21T14:10:46.573Z,16.83
2023-03-21T14:13:18.300Z,14.47
2023-03-21T14:15:55.172Z,14.30
2023-03-21T14:18:52.450Z,17.20
2023-03-21T14:21:23.720Z,15.47
2023-03-21T14:24:02.284Z,19.83
2023-03-21T14:26:34.305Z,15.40
2023-03-21T14:29:09.266Z,14.63
2023-03-21T14:31:41.163Z,15.33
2023-03-21T14:34:11.404Z,14.00
2023-03-21T14:36:45.784Z,17.57
2023-03-21T14:39:24.061Z,16.53
2023-03-21T14:41:55.470Z,18.90
2023-03-21T14:44:28.908Z,18.70
2023-03-21T14:47:02.279Z,12.90
2023-03-21T14:49:32.554Z,14.90
2023-03-21T14:52:06.726Z,17.87
2023-03-21T14:54:38.209Z,16.13
2023-03-21T14:57:11.337Z,14.80
2023-03-21T14:59:42.163Z,15.47
2023-03-21T15:02:18.062Z,13.60
2023-03-21T15:04:48.056Z,14.90
2023-03-21T15:07:26.020Z,12.43
2023-03-21T15:09:57.364Z,15.27
2023-03-21T15:12:25.531Z,14.40
2023-03-21T15:14:55.204Z,15.30
2023-03-21T15:17:25.472Z,12.63
2023-03-21T15:19:53.627Z,13.97
2023-03-21T15:22:30.288Z,12.80
2023-03-21T15:25:03.529Z,11.10
2023-03-21T15:27:36.242Z,15.00
2023-03-21T15:30:05.555Z,15.03
2023-03-21T15:32:37.513Z,14.40
2023-03-21T15:35:09.185Z,16.53
2023-03-21T15:37:38.533Z,14.37
2023-03-21T15:40:19.334Z,14.70
2023-03-21T15:42:47.587Z,13.70
2023-03-21T15:45:21.315Z,15.17
2023-03-21T15:47:55.572Z,13.23
2023-03-21T15:50:29.445Z,13.80
2023-03-21T15:53:01.201Z,14.73
2023-03-21T15:55:35.348Z,13.40
2023-03-21T15:58:07.277Z,14.23
2023-03-21T16:00:40.748Z,12.33
2023-03-21T16:03:17.590Z,14.37
2023-03-21T16:06:04.374Z,12.50
2023-03-21T16:08:35.829Z,15.70
2023-03-21T16:11:14.956Z,12.10
2023-03-21T16:13:43.172Z,14.43
2023-03-21T16:16:17.860Z,12.33
2023-03-21T16:18:46.086Z,13.70
2023-03-21T16:21:16.039Z,12.43
2023-03-21T16:23:44.177Z,11.93
2023-03-21T16:26:16.479Z,17.67
2023-03-21T16:28:45.466Z,13.87
2023-03-21T16:31:16.196Z,15.53
2023-03-21T16:33:44.873Z,13.80
2023-03-21T16:36:15.501Z,11.37
2023-03-21T16:38:43.662Z,14.50
2023-03-21T16:41:14.288Z,13.60
2023-03-21T16:43:43.834Z,13.17
2023-03-21T16:46:14.233Z,11.87
2023-03-21T16:48:43.308Z,12.00
2023-03-21T16:51:14.739Z,15.63
2023-03-21T16:53:42.998Z,12.60
2023-03-21T16:56:18.016Z,13.03
2023-03-21T16:58:46.404Z,11.77
2023-03-21T17:01:16.472Z,15.60
2023-03-21T17:03:44.632Z,15.53
2023-03-21T17:06:17.519Z,14.87
2023-03-21T17:08:46.213Z,19.57
2023-03-21T17:11:19.999Z,17.13
2023-03-21T17:13:48.865Z,15.93
2023-03-21T17:16:20.728Z,18.00
2023-03-21T17:18:49.135Z,16.50
2023-03-21T17:21:19.776Z,14.50
2023-03-21T17:23:48.481Z,16.83
2023-03-21T17:26:21.497Z,19.00
2023-03-21T17:28:50.546Z,16.07
2023-03-21T17:31:20.544Z,19.40
2023-03-21T17:33:49.420Z,16.90
2023-03-21T17:36:20.252Z,18.97
2023-03-21T17:38:48.534Z,23.47
2023-03-21T17:41:19.703Z,19.07
2023-03-21T17:43:48.093Z,20.13
2023-03-21T17:46:19.711Z,20.20
2023-03-21T17:48:47.909Z,19.77
2023-03-21T17:51:17.638Z,20.07
2023-03-21T17:53:48.296Z,25.23
2023-03-21T17:56:21.148Z,20.33
2023-03-21T17:58:49.901Z,23.93
2023-03-21T18:01:18.075Z,19.53
2023-03-21T18:03:46.392Z,19.30
2023-03-21T18:06:17.150Z,23.07
2023-03-21T18:08:46.069Z,24.33
2023-03-21T18:11:15.588Z,20.67
2023-03-21T18:13:45.693Z,20.67
2023-03-21T18:16:16.040Z,21.63
2023-03-21T18:18:46.560Z,20.30
2023-03-21T18:21:18.965Z,20.70
2023-03-21T18:23:48.608Z,21.77
2023-03-21T18:26:22.891Z,21.13
2023-03-21T18:29:43.896Z,23.67
2023-03-21T18:31:43.868Z,23.03
2023-03-21T18:34:15.365Z,24.50
2023-03-21T18:36:43.582Z,20.40
2023-03-21T18:39:13.224Z,23.67
2023-03-21T18:41:41.383Z,20.07
2023-03-21T18:44:22.606Z,23.53
2023-03-21T18:46:53.204Z,24.40
2023-03-21T18:50:02.110Z,22.57
2023-03-21T18:52:10.022Z,22.43
2023-03-21T18:54:38.583Z,22.30
2023-03-21T18:59:59.092Z,22.70
2023-03-21T19:02:27.436Z,22.83
2023-03-21T19:04:57.868Z,23.90
2023-03-21T19:07:26.405Z,21.50
2023-03-21T19:10:16.042Z,22.63
2023-03-21T19:12:43.256Z,24.70
2023-03-21T19:15:13.292Z,20.53
2023-03-21T19:20:30.013Z,20.37
2023-03-21T19:22:58.209Z,21.83
2023-03-21T19:25:26.573Z,22.47
2023-03-21T19:27:55.041Z,23.03
2023-03-21T19:30:24.750Z,20.20
2023-03-21T19:32:52.891Z,19.80
2023-03-21T19:35:21.791Z,20.10
2023-03-21T19:37:50.030Z,21.43
2023-03-21T19:40:19.820Z,21.37
2023-03-21T19:42:47.990Z,20.33
2023-03-21T19:45:16.338Z,21.23
2023-03-21T19:47:46.273Z,20.97
2023-03-21T19:53:02.563Z,23.10
2023-03-21T19:55:30.893Z,19.47
2023-03-21T19:57:59.431Z,19.30
2023-03-21T20:00:27.921Z,20.43
2023-03-21T20:02:57.402Z,20.27
2023-03-21T20:05:26.123Z,20.83
2023-03-21T20:07:57.210Z,19.80
2023-03-21T20:10:27.546Z,20.97
2023-03-21T20:12:55.815Z,18.50
2023-03-21T20:15:26.834Z,18.73
2023-03-21T20:17:58.668Z,19.17
2023-03-21T20:20:27.013Z,20.37
2023-03-21T20:23:06.692Z,19.00
2023-03-21T20:25:36.472Z,20.03
2023-03-21T20:28:25.825Z,21.13
2023-03-21T20:30:56.991Z,20.53
2023-03-21T20:33:28.030Z,18.90
2023-03-21T20:38:47.634Z,19.97
2023-03-21T20:41:16.044Z,29.63
2023-03-21T20:46:32.862Z,21.60
2023-03-21T20:49:02.380Z,22.30
2023-03-21T20:52:40.853Z,22.27
2023-03-21T20:54:18.764Z,19.30
2023-03-21T20:56:47.847Z,21.00
2023-03-21T20:59:25.558Z,20.03
2023-03-21T21:01:54.733Z,21.77
2023-03-21T21:04:42.826Z,20.60
2023-03-21T21:07:16.037Z,22.03
2023-03-21T21:09:45.039Z,21.63
2023-03-21T21:12:14.980Z,22.00
2023-03-21T21:14:43.672Z,24.80
2023-03-21T21:17:46.946Z,22.60
2023-03-21T21:20:02.238Z,27.37
2023-03-21T21:22:30.436Z,26.37
2023-03-21T21:24:58.640Z,26.00
2023-03-21T21:27:26.837Z,28.67
2023-03-21T21:29:54.960Z,25.80
2023-03-21T21:32:23.424Z,24.87
2023-03-21T21:34:52.241Z,24.43
2023-03-21T21:37:22.682Z,29.53
2023-03-21T21:39:50.923Z,25.63
2023-03-21T21:42:19.370Z,25.43
2023-03-21T21:44:47.592Z,27.27
2023-03-21T21:47:15.913Z,25.53
2023-03-21T21:49:44.079Z,26.77
2023-03-21T21:52:13.635Z,28.20
2023-03-21T21:54:45.723Z,27.83
2023-03-21T21:57:14.570Z,29.00
2023-03-21T21:59:42.870Z,26.00
2023-03-21T22:02:13.947Z,27.40
2023-03-21T22:04:42.146Z,30.40
2023-03-21T22:07:14.353Z,25.77
2023-03-21T22:09:45.583Z,25.80
2023-03-21T22:12:13.713Z,25.63
2023-03-21T22:14:41.851Z,27.07
2023-03-21T22:17:10.098Z,26.27
2023-03-21T22:19:40.237Z,26.27
2023-03-21T22:22:08.688Z,26.20
2023-03-21T22:24:37.485Z,40.23
2023-03-21T22:27:07.013Z,32.00
2023-03-21T22:29:35.333Z,33.93
2023-03-21T22:32:03.574Z,30.67
2023-03-21T22:34:32.289Z,28.77
2023-03-21T22:37:02.542Z,26.90
2023-03-21T22:39:31.081Z,23.43
2023-03-21T22:42:00.921Z,26.33
2023-03-21T22:44:34.886Z,24.77
2023-03-21T22:47:03.524Z,27.50
2023-03-21T22:49:32.787Z,28.50
2023-03-21T22:52:01.548Z,27.70
2023-03-21T22:54:29.796Z,25.73
2023-03-21T22:56:58.089Z,28.23
2023-03-21T22:59:26.827Z,26.67
2023-03-21T23:01:56.691Z,25.20
2023-03-21T23:04:26.026Z,24.23
2023-03-21T23:06:54.693Z,25.40
2023-03-21T23:09:22.985Z,24.37
2023-03-21T23:11:51.802Z,24.53
2023-03-21T23:14:20.878Z,25.47
2023-03-21T23:16:50.661Z,29.60
2023-03-21T23:19:21.173Z,25.53
2023-03-21T23:21:50.128Z,26.30
2023-03-21T23:24:18.296Z,26.27
2023-03-21T23:26:46.472Z,24.93
2023-03-21T23:29:14.816Z,28.40
2023-03-21T23:31:43.021Z,25.97
2023-03-21T23:34:11.306Z,24.30
2023-03-21T23:36:40.961Z,25.07
2023-03-21T23:39:09.438Z,22.17
2023-03-21T23:41:37.776Z,23.20
2023-03-21T23:44:06.317Z,24.60
2023-03-21T23:46:34.557Z,25.67
2023-03-21T23:49:03.309Z,23.33
2023-03-21T23:51:31.463Z,24.93
2023-03-21T23:54:01.098Z,21.87
2023-03-21T23:56:29.398Z,24.00
2023-03-21T23:58:58.249Z,25.63
